地図

経路データ

SID SEASON NUMBER BASIN SUBBASIN NAME ISO_TIME NATURE LAT LON WMO_WIND WMO_PRES WMO_AGENCY TRACK_TYPE DIST2LAND LANDFALL IFLAG USA_AGENCY USA_ATCF_ID USA_LAT USA_LON USA_RECORD USA_STATUS USA_WIND USA_PRES USA_SSHS USA_R34_NE USA_R34_SE USA_R34_SW USA_R34_NW USA_R50_NE USA_R50_SE USA_R50_SW USA_R50_NW USA_R64_NE USA_R64_SE USA_R64_SW USA_R64_NW USA_POCI USA_ROCI USA_RMW USA_EYE TOKYO_LAT TOKYO_LON TOKYO_GRADE TOKYO_WIND TOKYO_PRES TOKYO_R50_DIR TOKYO_R50_LONG TOKYO_R50_SHORT TOKYO_R30_DIR TOKYO_R30_LONG TOKYO_R30_SHORT TOKYO_LAND CMA_LAT CMA_LON CMA_CAT CMA_WIND CMA_PRES HKO_LAT HKO_LON HKO_CAT HKO_WIND HKO_PRES NEWDELHI_LAT NEWDELHI_LON NEWDELHI_GRADE NEWDELHI_WIND NEWDELHI_PRES NEWDELHI_CI NEWDELHI_DP NEWDELHI_POCI REUNION_LAT REUNION_LON REUNION_TYPE REUNION_WIND REUNION_PRES REUNION_TNUM REUNION_CI REUNION_RMW REUNION_R34_NE REUNION_R34_SE REUNION_R34_SW REUNION_R34_NW REUNION_R50_NE REUNION_R50_SE REUNION_R50_SW REUNION_R50_NW REUNION_R64_NE REUNION_R64_SE REUNION_R64_SW REUNION_R64_NW BOM_LAT BOM_LON BOM_TYPE BOM_WIND BOM_PRES BOM_TNUM BOM_CI BOM_RMW BOM_R34_NE BOM_R34_SE BOM_R34_SW BOM_R34_NW BOM_R50_NE BOM_R50_SE BOM_R50_SW BOM_R50_NW BOM_R64_NE BOM_R64_SE BOM_R64_SW BOM_R64_NW BOM_ROCI BOM_POCI BOM_EYE BOM_POS_METHOD BOM_PRES_METHOD NADI_LAT NADI_LON NADI_CAT NADI_WIND NADI_PRES WELLINGTON_LAT WELLINGTON_LON WELLINGTON_WIND WELLINGTON_PRES DS824_LAT DS824_LON DS824_STAGE DS824_WIND DS824_PRES TD9636_LAT TD9636_LON TD9636_STAGE TD9636_WIND TD9636_PRES TD9635_LAT TD9635_LON TD9635_WIND TD9635_PRES TD9635_ROCI NEUMANN_LAT NEUMANN_LON NEUMANN_CLASS NEUMANN_WIND NEUMANN_PRES MLC_LAT MLC_LON MLC_CLASS MLC_WIND MLC_PRES USA_GUST BOM_GUST BOM_GUST_PER REUNION_GUST REUNION_GUST_PER USA_SEAHGT USA_SEARAD_NE USA_SEARAD_SE USA_SEARAD_SW USA_SEARAD_NW STORM_SPEED STORM_DIR
1902208N22088 1902 26 NI BB NOT_NAMED 1902-07-27 00:00:00 TS 22.0000 88.0000 main 0 0 _________O____ -1 22.0000 88.0000 TC 30 3 319
1902208N22088 1902 26 NI BB NOT_NAMED 1902-07-27 03:00:00 TS 22.0983 87.9083 main 0 0 _________PO___ -1 22.1475 87.8625 TC 30 22.0000 88.0000 1 3 316
1902208N22088 1902 26 NI BB NOT_NAMED 1902-07-27 06:00:00 TS 22.2477 87.7378 main 0 0 _________OP___ -1 22.3000 87.7000 TC 30 22.1693 87.7945 1 5 312
1902208N22088 1902 26 NI BB NOT_NAMED 1902-07-27 09:00:00 TS 22.4032 87.5433 main 0 0 _________PP___ -1 22.4575 87.5000 TC 30 22.3308 87.6010 1 5 310
1902208N22088 1902 26 NI BB NOT_NAMED 1902-07-27 12:00:00 TS 22.5384 87.3660 main 0 0 _________OP___ -1 22.6000 87.3000 TC 30 22.4768 87.4320 1 4 310
1902208N22088 1902 26 NI BB NOT_NAMED 1902-07-27 15:00:00 TS 22.6537 87.2212 main 0 0 _________PO___ -1 22.7075 87.1424 TC 30 22.6000 87.3000 1 3 311
1902208N22088 1902 26 NI BB NOT_NAMED 1902-07-27 18:00:00 TS 22.7486 87.1035 main 0 0 _________OP___ -1 22.8000 87.0000 TC 30 22.6973 87.2069 1 3 312
1902208N22088 1902 26 NI BB NOT_NAMED 1902-07-27 21:00:00 TS 22.8304 87.0104 main 0 0 _________PP___ -1 22.8772 86.9096 TC 30 22.7836 87.1111 1 3 307
1902208N22088 1902 26 NI BB NOT_NAMED 1902-07-28 00:00:00 TS 22.9391 86.8299 main 0 0 _________OP___ -1 23.0000 86.7000 TC 30 22.8782 86.9598 1 6 300
1902208N22088 1902 26 NI BB NOT_NAMED 1902-07-28 03:00:00 TS 23.1214 86.4552 main 0 0 _________PO___ -1 23.2428 86.2104 TC 30 23.0000 86.7000 1 9 296
1902208N22088 1902 26 NI BB NOT_NAMED 1902-07-28 06:00:00 TS 23.3400 85.9349 main 0 0 _________OP___ -1 23.5000 85.6000 TC 30 23.1801 86.2698 1 11 292
1902208N22088 1902 26 NI BB NOT_NAMED 1902-07-28 09:00:00 TS 23.5254 85.3891 main 0 0 _________PP___ -1 23.6648 85.0497 TC 30 23.3859 85.7285 1 11 289
1902208N22088 1902 26 NI BB NOT_NAMED 1902-07-28 12:00:00 TS 23.6993 84.8114 main 0 0 _________OP___ -1 23.8000 84.5000 TC 30 23.5987 85.1228 1 11 288
1902208N22088 1902 26 NI BB NOT_NAMED 1902-07-28 15:00:00 TS 23.8749 84.2287 main 0 0 _________PO___ -1 23.9497 83.9573 TC 30 23.8000 84.5000 1 11 288
1902208N22088 1902 26 NI BB NOT_NAMED 1902-07-28 18:00:00 TS 24.0405 83.6479 main 0 0 _________OP___ -1 24.1000 83.4000 TC 30 23.9809 83.8957 1 11 287
1902208N22088 1902 26 NI BB NOT_NAMED 1902-07-28 21:00:00 TS 24.2054 83.0302 main 0 0 _________PP___ -1 24.2652 82.7702 TC 30 24.1456 83.2903 1 11 286
1902208N22088 1902 26 NI BB NOT_NAMED 1902-07-29 00:00:00 TS 24.3437 82.4573 main 0 0 _________OP___ -1 24.4000 82.2000 TC 30 24.2873 82.7146 1 10 284
1902208N22088 1902 26 NI BB NOT_NAMED 1902-07-29 03:00:00 TS 24.4323 82.0061 main 0 0 _________PO___ -1 24.4646 81.8122 TC 30 24.4000 82.2000 1 8 281
1902208N22088 1902 26 NI BB NOT_NAMED 1902-07-29 06:00:00 TS 24.4847 81.6442 main 0 0 _________OP___ -1 24.5000 81.5000 TC 30 24.4694 81.7884 1 7 278
1902208N22088 1902 26 NI BB NOT_NAMED 1902-07-29 09:00:00 TS 24.5279 81.2981 main 0 0 _________PP___ -1 24.5424 81.1574 TC 30 24.5134 81.4388 1 6 278
1902208N22088 1902 26 NI BB NOT_NAMED 1902-07-29 12:00:00 TS 24.5754 80.9599 main 0 0 _________OP___ -1 24.6000 80.8000 TC 30 24.5508 81.1198 1 6 281
1902208N22088 1902 26 NI BB NOT_NAMED 1902-07-29 15:00:00 TS 24.6463 80.6000 main 0 0 _________PO___ -1 24.6925 80.4000 TC 30 24.6000 80.8000 1 7 284
1902208N22088 1902 26 NI BB NOT_NAMED 1902-07-29 18:00:00 TS 24.7450 80.2000 main 0 0 _________OP___ -1 24.8000 80.0000 TC 30 24.6900 80.4000 1 7 286
1902208N22088 1902 26 NI BB NOT_NAMED 1902-07-29 21:00:00 TS 24.8502 79.8090 main 0 0 _________PP___ -1 24.9075 79.6200 TC 30 24.7930 79.9980 1 7 287
1902208N22088 1902 26 NI BB NOT_NAMED 1902-07-30 00:00:00 TS 24.9497 79.4609 main 0 0 _________OP___ -1 25.0000 79.3000 TC 30 24.8994 79.6219 1 6 287
1902208N22088 1902 26 NI BB NOT_NAMED 1902-07-30 03:00:00 TS 25.0249 79.1849 main 0 0 _________PO___ -1 25.0499 79.0699 TC 30 25.0000 79.3000 1 5 288
1902208N22088 1902 26 NI BB NOT_NAMED 1902-07-30 06:00:00 TS 25.0949 78.9776 main 0 0 _________OP___ -1 25.1000 78.9000 TC 30 25.0898 79.0551 1 4 295
1902208N22088 1902 26 NI BB NOT_NAMED 1902-07-30 09:00:00 TS 25.1897 78.8012 main 0 0 _________PP___ -1 25.2075 78.7351 TC 30 25.1719 78.8673 1 3 302
1902208N22088 1902 26 NI BB NOT_NAMED 1902-07-30 12:00:00 TS 25.2716 78.6604 main 0 0 _________OP___ -1 25.3000 78.6000 TC 30 25.2431 78.7208 1 3 296
1902208N22088 1902 26 NI BB NOT_NAMED 1902-07-30 15:00:00 TS 25.3037 78.5462 main 0 0 _________PO___ -1 25.3075 78.4924 TC 30 25.3000 78.6000 1 2 279
1902208N22088 1902 26 NI BB NOT_NAMED 1902-07-30 18:00:00 TS 25.3034 78.4411 main 0 0 _________OP___ -1 25.3000 78.4000 TC 30 25.3067 78.4821 1 2 273
1902208N22088 1902 26 NI BB NOT_NAMED 1902-07-30 21:00:00 TS 25.3124 78.3460 main 0 0 _________PP___ -1 25.3200 78.3074 TC 30 25.3048 78.3845 1 2 289
1902208N22088 1902 26 NI BB NOT_NAMED 1902-07-31 00:00:00 TS 25.3628 78.2473 main 0 0 _________OP___ -1 25.4000 78.2000 TC 30 25.3255 78.2946 1 3 311
1902208N22088 1902 26 NI BB NOT_NAMED 1902-07-31 03:00:00 TS 25.4850 78.1250 main 0 0 _________PO___ -1 25.5700 78.0501 TC 30 25.4000 78.2000 1 4 323
1902208N22088 1902 26 NI AS NOT_NAMED 1902-07-31 06:00:00 TS 25.6879 77.9812 main 0 0 _________OP___ -1 25.8000 77.9000 TC 30 25.5757 78.0623 1 5 331
1902208N22088 1902 26 NI AS NOT_NAMED 1902-07-31 09:00:00 TS 25.9276 77.8528 main 0 0 _________PP___ -1 26.0500 77.7850 TC 30 25.8051 77.9207 1 5 337
1902208N22088 1902 26 NI AS NOT_NAMED 1902-07-31 12:00:00 TS 26.1785 77.7468 main 0 0 _________OP___ -1 26.3000 77.7000 TC 30 26.0570 77.7936 1 5 341
1902208N22088 1902 26 NI AS NOT_NAMED 1902-07-31 15:00:00 TS 26.4075 77.6637 main 0 0 _________PO___ -1 26.5150 77.6275 TC 30 26.3000 77.7000 1 4 344
1902208N22088 1902 26 NI AS NOT_NAMED 1902-07-31 18:00:00 TS 26.5926 77.6218 main 0 0 _________OP___ -1 26.7000 77.6000 TC 30 26.4852 77.6437 1 3 352
1902208N22088 1902 26 NI AS NOT_NAMED 1902-07-31 21:00:00 TS 26.7537 77.6262 main 0 0 _________PP___ -1 26.8500 77.6275 TC 30 26.6573 77.6250 1 3 8
1902208N22088 1902 26 NI AS NOT_NAMED 1902-08-01 00:00:00 TS 26.9129 77.6719 main 0 0 _________OP___ -1 27.0000 77.7000 TC 30 26.8258 77.6438 1 4 17
1902208N22088 1902 26 NI AS NOT_NAMED 1902-08-01 03:00:00 TS 27.0962 77.7425 main 0 0 _________PO___ -1 27.1925 77.7850 TC 30 27.0000 77.7000 1 4 21
1902208N22088 1902 26 NI AS NOT_NAMED 1902-08-01 06:00:00 TS 27.2923 77.8345 main 0 0 _________OP___ -1 27.4000 77.9000 TC 30 27.1846 77.7689 1 4 25
1902208N22088 1902 26 NI AS NOT_NAMED 1902-08-01 09:00:00 TS 27.4849 77.9515 main 0 0 _________PP___ -1 27.5924 78.0276 TC 30 27.3773 77.8754 1 5 31
1902208N22088 1902 26 NI BB NOT_NAMED 1902-08-01 12:00:00 TS 27.6907 78.1096 main 0 0 _________OP___ -1 27.8000 78.2000 TC 30 27.5814 78.0191 1 5 37
1902208N22088 1902 26 NI BB NOT_NAMED 1902-08-01 15:00:00 TS 27.9213 78.3175 main 0 0 _________PO___ -1 28.0425 78.4350 TC 30 27.8000 78.2000 1 6 40
1902208N22088 1902 26 NI BB NOT_NAMED 1902-08-01 18:00:00 TS 28.1486 78.5380 main 0 0 _________OP___ -1 28.3000 78.7000 TC 30 28.0350 78.4165 1 6 41
1902208N22088 1902 26 NI BB NOT_NAMED 1902-08-01 21:00:00 TS 28.3909 78.7787 main 0 0 _________PP___ -1 28.5525 78.9548 TC 30 28.2831 78.6612 1 6 41
1902208N22088 1902 26 NI BB NOT_NAMED 1902-08-02 00:00:00 TS 28.6264 79.0169 main 0 0 _________OP___ -1 28.8000 79.2000 TC 30 28.5396 78.9254 1 6 42
1902208N22088 1902 26 NI BB NOT_NAMED 1902-08-02 03:00:00 NR 28.8000 79.2000 main 0 __________O___ -1 TC 28.8000 79.2000 1 5 42

IBTrACS Databaseについて

本データベースは、米国NOAAが公開する1842年以降の世界の熱帯低気圧のベストトラックデータアーカイブInternational Best Track Archive for Climate Stewardship (IBTrACS)を、ウェブで閲覧しやすい形式に変換したものです。

最終更新日:2021-12-03